createdAt,value
2022-10-05T00:01:24.410Z,4.65
2022-10-05T00:04:01.320Z,4.97
2022-10-05T00:06:32.574Z,4.38
2022-10-05T00:09:03.633Z,4.57
2022-10-05T00:11:35.517Z,4.68
2022-10-05T00:16:41.624Z,3.80
2022-10-05T00:19:20.502Z,4.50
2022-10-05T00:21:50.842Z,5.47
2022-10-05T00:24:22.282Z,5.45
2022-10-05T00:26:57.812Z,5.50
2022-10-05T00:29:28.394Z,5.47
2022-10-05T00:31:58.770Z,6.80
2022-10-05T00:34:28.864Z,6.38
2022-10-05T00:36:59.991Z,6.30
2022-10-05T00:39:30.372Z,6.80
2022-10-05T00:42:23.134Z,5.93
2022-10-05T00:44:58.405Z,6.85
2022-10-05T00:47:43.764Z,6.63
2022-10-05T00:50:49.032Z,6.88
2022-10-05T00:53:32.697Z,7.53
2022-10-05T00:56:11.075Z,7.63
2022-10-05T00:58:56.952Z,5.97
2022-10-05T01:01:34.585Z,5.50
2022-10-05T01:04:13.102Z,6.43
2022-10-05T01:06:53.404Z,5.45
2022-10-05T01:09:39.322Z,6.25
2022-10-05T01:12:21.402Z,6.47
2022-10-05T01:15:01.571Z,5.63
2022-10-05T01:17:43.331Z,6.28
2022-10-05T01:20:45.063Z,6.80
2022-10-05T01:23:47.584Z,5.93
2022-10-05T01:26:33.175Z,4.68
2022-10-05T01:29:11.852Z,4.63
2022-10-05T01:31:50.103Z,4.65
2022-10-05T01:34:28.837Z,5.03
2022-10-05T01:37:08.471Z,5.15
2022-10-05T01:39:47.203Z,5.40
2022-10-05T01:42:29.924Z,4.72
2022-10-05T01:45:10.342Z,4.68
2022-10-05T01:47:47.353Z,5.50
2022-10-05T01:50:29.146Z,6.03
2022-10-05T01:53:07.723Z,5.38
2022-10-05T01:55:43.553Z,4.53
2022-10-05T01:58:22.112Z,5.80
2022-10-05T02:01:02.040Z,6.55
2022-10-05T02:03:40.291Z,5.15
2022-10-05T02:06:16.776Z,6.43
2022-10-05T02:08:54.242Z,6.35
2022-10-05T02:11:24.373Z,6.25
2022-10-05T02:14:00.325Z,7.13
2022-10-05T02:16:44.351Z,5.95
2022-10-05T02:19:20.520Z,5.97
2022-10-05T02:21:55.171Z,6.18
2022-10-05T02:24:40.121Z,6.47
2022-10-05T02:27:12.542Z,5.93
2022-10-05T02:29:50.663Z,9.23
2022-10-05T02:32:25.665Z,17.42
2022-10-05T02:35:03.545Z,19.13
2022-10-05T02:37:45.074Z,14.80
2022-10-05T02:40:25.264Z,10.68
2022-10-05T02:43:08.674Z,8.38
2022-10-05T02:45:51.807Z,7.28
2022-10-05T02:48:32.954Z,6.05
2022-10-05T02:51:12.302Z,6.95
2022-10-05T02:53:56.923Z,7.50
2022-10-05T02:56:38.344Z,5.97
2022-10-05T02:59:15.253Z,7.00
2022-10-05T03:01:51.983Z,6.20
2022-10-05T03:04:39.187Z,5.78
2022-10-05T03:07:17.093Z,6.38
2022-10-05T03:10:01.126Z,7.35
2022-10-05T03:12:50.983Z,7.13
2022-10-05T03:15:41.242Z,7.15
2022-10-05T03:18:21.554Z,5.45
2022-10-05T03:21:02.983Z,5.90
2022-10-05T03:23:45.842Z,6.38
2022-10-05T03:26:37.322Z,6.50
2022-10-05T03:29:21.893Z,6.88
2022-10-05T03:32:00.124Z,5.95
2022-10-05T03:34:44.683Z,6.45
2022-10-05T03:37:24.105Z,6.15
2022-10-05T03:40:02.066Z,6.82
2022-10-05T03:42:39.960Z,6.00
2022-10-05T03:45:35.103Z,6.50
2022-10-05T03:48:10.243Z,5.65
2022-10-05T03:50:49.075Z,6.85
2022-10-05T03:53:23.772Z,6.40
2022-10-05T03:56:00.373Z,6.13
2022-10-05T03:58:40.961Z,7.95
2022-10-05T04:01:16.314Z,6.47
2022-10-05T04:03:49.871Z,6.53
2022-10-05T04:06:25.697Z,6.60
2022-10-05T04:09:03.931Z,5.85
2022-10-05T04:11:41.361Z,5.97
2022-10-05T04:14:16.672Z,6.47
2022-10-05T04:16:50.074Z,6.55
2022-10-05T04:19:24.652Z,6.78
2022-10-05T04:22:06.177Z,6.30
2022-10-05T04:24:43.584Z,6.95
2022-10-05T04:27:17.942Z,7.50
2022-10-05T04:29:55.657Z,7.50
2022-10-05T04:32:37.713Z,6.80
2022-10-05T04:35:31.655Z,7.00
2022-10-05T04:38:17.584Z,5.90
2022-10-05T04:41:09.793Z,8.43
2022-10-05T04:43:51.384Z,7.03
2022-10-05T04:46:37.010Z,6.97
2022-10-05T04:49:37.955Z,7.43
2022-10-05T04:52:19.531Z,6.87
2022-10-05T04:55:04.295Z,7.32
2022-10-05T04:57:43.502Z,6.60
2022-10-05T05:00:25.441Z,6.90
2022-10-05T05:03:21.928Z,6.60
2022-10-05T05:06:17.940Z,7.40
2022-10-05T05:09:15.234Z,6.95
2022-10-05T05:12:04.184Z,8.45
2022-10-05T05:17:57.424Z,7.75
2022-10-05T05:20:40.429Z,7.43
2022-10-05T05:23:21.943Z,7.70
2022-10-05T05:26:08.895Z,8.93
2022-10-05T05:28:55.592Z,7.10
2022-10-05T05:31:38.438Z,8.25
2022-10-05T05:34:22.783Z,7.28
2022-10-05T05:37:02.761Z,7.55
2022-10-05T05:39:50.073Z,7.68
2022-10-05T05:42:37.243Z,7.38
2022-10-05T05:45:17.978Z,7.10
2022-10-05T05:47:54.587Z,7.03
2022-10-05T05:50:43.407Z,7.25
2022-10-05T05:53:20.605Z,7.95
2022-10-05T05:55:56.623Z,9.93
2022-10-05T05:58:34.241Z,6.93
2022-10-05T06:01:30.658Z,9.23
2022-10-05T06:04:09.005Z,7.80
2022-10-05T06:06:46.341Z,7.28
2022-10-05T06:09:24.626Z,7.78
2022-10-05T06:12:12.423Z,8.20
2022-10-05T06:14:48.805Z,7.57
2022-10-05T06:17:26.611Z,7.00
2022-10-05T06:20:04.686Z,7.22
2022-10-05T06:22:42.483Z,6.85
2022-10-05T06:25:26.952Z,6.82
2022-10-05T06:28:11.041Z,8.00
2022-10-05T06:31:14.665Z,6.47
2022-10-05T06:33:52.933Z,6.88
2022-10-05T06:36:42.592Z,6.88
2022-10-05T06:39:44.764Z,6.78
2022-10-05T06:42:45.803Z,7.75
2022-10-05T06:45:45.805Z,6.85
2022-10-05T06:49:04.564Z,6.50
2022-10-05T06:52:05.628Z,7.60
2022-10-05T06:54:54.097Z,7.97
2022-10-05T06:57:47.377Z,9.23
2022-10-05T07:00:22.006Z,7.05
2022-10-05T07:02:59.811Z,7.10
2022-10-05T07:05:46.997Z,7.82
2022-10-05T07:08:26.056Z,7.30
2022-10-05T07:14:11.854Z,6.65
2022-10-05T07:17:01.870Z,7.20
2022-10-05T07:19:43.353Z,7.78
2022-10-05T07:22:43.785Z,6.30
2022-10-05T07:25:22.361Z,7.47
2022-10-05T07:27:59.555Z,7.20
2022-10-05T07:30:33.717Z,8.05
2022-10-05T07:33:14.689Z,6.63
2022-10-05T07:36:09.973Z,7.80
2022-10-05T07:38:46.739Z,6.00
2022-10-05T07:41:24.390Z,7.80
2022-10-05T07:44:03.161Z,6.38
2022-10-05T07:46:57.079Z,6.55
2022-10-05T07:49:43.125Z,7.15
2022-10-05T07:52:18.675Z,6.63
2022-10-05T07:54:58.934Z,6.50
2022-10-05T07:57:41.367Z,6.10
2022-10-05T08:00:20.812Z,5.70
2022-10-05T08:02:58.622Z,5.68
2022-10-05T08:05:33.216Z,6.72
2022-10-05T08:08:16.687Z,5.65
2022-10-05T08:10:56.869Z,5.70
2022-10-05T08:13:35.385Z,7.13
2022-10-05T08:16:12.920Z,7.18
2022-10-05T08:18:57.138Z,5.97
2022-10-05T08:21:33.765Z,5.50
2022-10-05T08:24:14.882Z,6.07
2022-10-05T08:26:53.592Z,6.22
2022-10-05T08:29:29.058Z,6.43
2022-10-05T08:32:03.693Z,6.97
2022-10-05T08:34:43.125Z,6.30
2022-10-05T08:37:19.055Z,6.95
2022-10-05T08:39:56.806Z,6.65
2022-10-05T08:43:03.338Z,6.57
2022-10-05T08:46:04.451Z,6.38
2022-10-05T08:49:06.112Z,6.70
2022-10-05T08:52:01.072Z,7.80
2022-10-05T08:55:05.132Z,5.43
2022-10-05T08:58:20.834Z,6.25
2022-10-05T09:01:01.315Z,6.45
2022-10-05T09:04:08.625Z,6.60
2022-10-05T09:07:15.280Z,5.82
2022-10-05T09:10:29.195Z,6.13
2022-10-05T09:13:21.114Z,7.45
2022-10-05T09:16:15.504Z,6.95
2022-10-05T09:19:13.094Z,6.78
2022-10-05T09:21:45.059Z,6.32
2022-10-05T09:24:29.006Z,6.55
2022-10-05T09:27:11.821Z,5.63
2022-10-05T09:30:14.616Z,5.90
2022-10-05T09:33:13.773Z,5.75
2022-10-05T09:36:14.112Z,4.70
2022-10-05T09:39:20.585Z,5.22
2022-10-05T09:42:11.279Z,4.60
2022-10-05T09:45:12.120Z,5.78
2022-10-05T09:48:02.821Z,5.30
2022-10-05T09:51:08.086Z,5.38
2022-10-05T09:54:22.771Z,5.72
2022-10-05T09:57:42.782Z,5.30
2022-10-05T10:00:29.893Z,6.05
2022-10-05T10:03:27.899Z,5.30
2022-10-05T10:06:29.662Z,5.30
2022-10-05T10:09:25.532Z,5.13
2022-10-05T10:12:31.876Z,5.70
2022-10-05T10:15:40.484Z,5.93
2022-10-05T10:18:42.665Z,5.60
2022-10-05T10:21:38.352Z,5.72
2022-10-05T10:24:23.312Z,6.25
2022-10-05T10:27:35.307Z,6.50
2022-10-05T10:30:38.901Z,6.25
2022-10-05T10:33:37.701Z,5.13
2022-10-05T10:36:15.722Z,6.00
2022-10-05T10:39:00.334Z,6.03
2022-10-05T10:42:00.100Z,6.43
2022-10-05T10:45:06.774Z,6.25
2022-10-05T10:47:48.435Z,6.60
2022-10-05T10:50:45.406Z,6.57
2022-10-05T10:53:31.235Z,6.22
2022-10-05T10:56:30.693Z,7.18
2022-10-05T10:59:53.252Z,5.55
2022-10-05T11:02:53.395Z,6.22
2022-10-05T11:05:55.258Z,4.80
2022-10-05T11:09:02.000Z,5.95
2022-10-05T11:12:10.054Z,5.80
2022-10-05T11:15:18.765Z,5.80
2022-10-05T11:18:07.304Z,6.22
2022-10-05T11:21:16.132Z,5.07
2022-10-05T11:24:27.862Z,5.38
2022-10-05T11:30:41.013Z,6.00
2022-10-05T11:33:39.244Z,5.65
2022-10-05T11:36:42.583Z,6.22
2022-10-05T11:39:39.094Z,6.78
2022-10-05T11:42:40.215Z,6.38
2022-10-05T11:45:38.494Z,5.40
2022-10-05T11:48:44.445Z,5.82
2022-10-05T11:51:47.462Z,5.68
2022-10-05T11:55:09.806Z,4.90
2022-10-05T11:57:50.199Z,4.85
2022-10-05T12:00:22.519Z,5.88
2022-10-05T12:03:24.881Z,4.65
2022-10-05T12:06:08.741Z,5.43
2022-10-05T12:08:50.425Z,4.35
2022-10-05T12:11:48.324Z,5.43
2022-10-05T12:14:33.833Z,5.63
2022-10-05T12:17:12.222Z,5.53
2022-10-05T12:19:47.354Z,5.45
2022-10-05T12:22:23.113Z,5.25
2022-10-05T12:25:04.971Z,5.28
2022-10-05T12:27:40.865Z,5.35
2022-10-05T12:30:19.896Z,4.70
2022-10-05T12:33:02.433Z,4.43
2022-10-05T12:35:48.483Z,4.60
2022-10-05T12:38:28.745Z,4.38
2022-10-05T12:41:09.354Z,4.75
2022-10-05T12:43:54.929Z,5.20
2022-10-05T12:46:35.625Z,5.00
2022-10-05T12:49:36.642Z,4.25
2022-10-05T12:52:15.494Z,4.82
2022-10-05T12:54:53.234Z,5.07
2022-10-05T12:57:29.240Z,5.00
2022-10-05T13:00:08.142Z,4.97
2022-10-05T13:02:46.205Z,4.82
2022-10-05T13:05:25.092Z,4.78
2022-10-05T13:08:10.342Z,4.38
2022-10-05T13:10:46.468Z,5.00
2022-10-05T13:13:47.344Z,4.43
2022-10-05T13:16:27.166Z,4.30
2022-10-05T13:19:15.492Z,4.65
2022-10-05T13:22:11.335Z,5.70
2022-10-05T13:24:50.019Z,4.50
2022-10-05T13:27:25.413Z,4.82
2022-10-05T13:30:00.824Z,5.00
2022-10-05T13:32:37.364Z,5.13
2022-10-05T13:35:25.862Z,5.22
2022-10-05T13:38:04.753Z,4.10
2022-10-05T13:40:40.156Z,4.35
2022-10-05T13:43:20.493Z,4.30
2022-10-05T13:45:57.141Z,4.13
2022-10-05T13:48:50.421Z,4.50
2022-10-05T13:51:26.126Z,3.97
2022-10-05T13:54:05.150Z,4.18
2022-10-05T13:56:39.183Z,4.43
2022-10-05T13:59:20.236Z,4.85
2022-10-05T14:01:59.934Z,4.40
2022-10-05T14:04:32.725Z,4.50
2022-10-05T14:07:23.697Z,4.55
2022-10-05T14:09:54.078Z,3.88
2022-10-05T14:12:24.853Z,4.53
2022-10-05T14:14:57.245Z,4.25
2022-10-05T14:17:41.520Z,4.10
2022-10-05T14:20:26.356Z,4.95
2022-10-05T14:23:01.633Z,4.15
2022-10-05T14:25:32.849Z,4.80
2022-10-05T14:28:06.982Z,4.45
2022-10-05T14:30:40.028Z,5.45
2022-10-05T14:33:18.484Z,5.30
2022-10-05T14:35:52.625Z,4.60
2022-10-05T14:38:26.954Z,4.65
2022-10-05T14:41:19.058Z,4.28
2022-10-05T14:43:57.047Z,5.25
2022-10-05T14:46:32.909Z,4.82
2022-10-05T14:49:22.626Z,4.78
2022-10-05T14:51:54.044Z,5.05
2022-10-05T14:54:41.759Z,5.47
2022-10-05T14:57:25.620Z,5.47
2022-10-05T15:00:12.712Z,5.20
2022-10-05T15:03:16.077Z,5.22
2022-10-05T15:05:50.799Z,5.20
2022-10-05T15:09:17.981Z,6.15
2022-10-05T15:11:53.135Z,5.35
2022-10-05T15:14:34.814Z,5.55
2022-10-05T15:17:20.680Z,6.10
2022-10-05T15:20:00.041Z,5.72
2022-10-05T15:22:40.864Z,6.57
2022-10-05T15:25:18.832Z,5.93
2022-10-05T15:28:10.691Z,6.15
2022-10-05T15:30:48.311Z,5.70
2022-10-05T15:33:27.945Z,5.93
2022-10-05T15:36:08.573Z,6.10
2022-10-05T15:38:50.755Z,7.00
2022-10-05T15:41:26.064Z,6.32
2022-10-05T15:44:09.781Z,5.85
2022-10-05T15:46:52.152Z,6.88
2022-10-05T15:49:33.608Z,6.10
2022-10-05T15:52:18.104Z,8.45
2022-10-05T15:55:24.578Z,6.78
2022-10-05T15:58:13.743Z,7.53
2022-10-05T16:00:50.421Z,7.18
2022-10-05T16:03:29.656Z,6.90
2022-10-05T16:06:25.123Z,7.40
2022-10-05T16:09:10.771Z,7.07
2022-10-05T16:12:08.912Z,7.63
2022-10-05T16:14:57.075Z,8.23
2022-10-05T16:17:36.914Z,7.88
2022-10-05T16:20:24.914Z,7.00
2022-10-05T16:23:06.129Z,7.97
2022-10-05T16:25:50.075Z,9.30
2022-10-05T16:28:31.941Z,8.00
2022-10-05T16:31:10.227Z,8.80
2022-10-05T16:33:56.969Z,7.70
2022-10-05T16:36:42.245Z,7.90
2022-10-05T16:39:22.181Z,7.45
2022-10-05T16:42:04.201Z,7.75
2022-10-05T16:44:45.861Z,7.65
2022-10-05T16:47:36.465Z,7.47
2022-10-05T16:50:21.253Z,7.75
2022-10-05T16:52:59.943Z,7.55
2022-10-05T16:55:38.141Z,7.50
2022-10-05T16:58:17.622Z,7.88
2022-10-05T17:01:07.343Z,7.95
2022-10-05T17:03:52.831Z,8.15
2022-10-05T17:06:58.363Z,10.15
2022-10-05T17:09:52.836Z,9.82
2022-10-05T17:12:40.838Z,10.43
2022-10-05T17:15:31.901Z,10.00
2022-10-05T17:18:32.415Z,10.15
2022-10-05T17:21:14.082Z,10.93
2022-10-05T17:23:56.571Z,9.45
2022-10-05T17:26:59.876Z,11.02
2022-10-05T17:29:43.452Z,9.68
2022-10-05T17:32:30.432Z,10.43
2022-10-05T17:35:20.724Z,10.38
2022-10-05T17:38:14.701Z,10.00
2022-10-05T17:41:11.124Z,11.00
2022-10-05T17:44:06.443Z,10.68
2022-10-05T17:46:40.635Z,10.50
2022-10-05T17:50:11.419Z,10.95
2022-10-05T17:53:02.212Z,11.20
2022-10-05T17:56:07.371Z,11.38
2022-10-05T17:59:04.566Z,11.65
2022-10-05T18:01:38.444Z,11.27
2022-10-05T18:04:40.442Z,11.38
2022-10-05T18:07:27.004Z,11.73
2022-10-05T18:10:18.276Z,11.18
2022-10-05T18:12:51.133Z,11.05
2022-10-05T18:15:51.970Z,9.68
2022-10-05T18:18:56.893Z,12.68
2022-10-05T18:21:38.032Z,11.20
2022-10-05T18:27:34.540Z,12.48
2022-10-05T18:30:18.666Z,12.70
2022-10-05T18:33:43.453Z,12.50
2022-10-05T18:36:50.649Z,11.90
2022-10-05T18:39:41.951Z,11.70
2022-10-05T18:42:23.222Z,12.70
2022-10-05T18:44:59.183Z,11.57
2022-10-05T18:47:38.602Z,13.45
2022-10-05T18:50:25.066Z,12.85
2022-10-05T18:53:09.754Z,11.98
2022-10-05T18:55:46.597Z,12.93
2022-10-05T18:58:27.352Z,11.93
2022-10-05T19:01:15.382Z,13.15
2022-10-05T19:04:09.919Z,13.73
2022-10-05T19:06:53.474Z,13.63
2022-10-05T19:09:38.928Z,14.80
2022-10-05T19:12:20.042Z,14.75
2022-10-05T19:15:01.022Z,13.30
2022-10-05T19:17:47.532Z,12.43
2022-10-05T19:20:29.434Z,13.88
2022-10-05T19:23:15.904Z,16.13
2022-10-05T19:25:55.195Z,16.65
2022-10-05T19:28:31.400Z,14.73
2022-10-05T19:31:13.332Z,15.38
2022-10-05T19:33:59.800Z,14.75
2022-10-05T19:36:46.835Z,13.43
2022-10-05T19:39:30.373Z,13.63
2022-10-05T19:42:17.960Z,14.35
2022-10-05T19:45:00.364Z,15.07
2022-10-05T19:47:43.724Z,13.23
2022-10-05T19:50:31.433Z,13.63
2022-10-05T19:53:12.971Z,14.07
2022-10-05T19:55:45.954Z,14.32
2022-10-05T19:58:22.592Z,14.13
2022-10-05T20:01:07.812Z,14.05
2022-10-05T20:03:44.513Z,16.13
2022-10-05T20:06:27.582Z,15.07
2022-10-05T20:09:19.536Z,14.25
2022-10-05T20:11:55.732Z,13.13
2022-10-05T20:14:59.381Z,16.15
2022-10-05T20:17:50.492Z,18.85
2022-10-05T20:20:37.442Z,22.15
2022-10-05T20:23:28.243Z,23.75
2022-10-05T20:26:16.834Z,25.42
2022-10-05T20:28:52.964Z,18.58
2022-10-05T20:31:23.399Z,19.83
2022-10-05T20:33:53.424Z,19.35
2022-10-05T20:36:23.784Z,22.38
2022-10-05T20:38:53.752Z,24.65
2022-10-05T20:41:23.823Z,24.77
2022-10-05T20:43:56.023Z,21.90
2022-10-05T20:46:26.487Z,21.42
2022-10-05T20:48:56.453Z,28.65
2022-10-05T20:51:29.173Z,31.13
2022-10-05T20:53:59.384Z,28.38
2022-10-05T20:56:29.962Z,19.15
2022-10-05T20:59:01.683Z,24.42
2022-10-05T21:04:03.734Z,16.60
2022-10-05T21:06:33.647Z,16.65
2022-10-05T21:09:03.857Z,18.20
2022-10-05T21:11:33.832Z,19.52
2022-10-05T21:14:05.907Z,17.63
2022-10-05T21:16:38.378Z,16.75
2022-10-05T21:19:09.774Z,18.17
2022-10-05T21:21:41.324Z,18.50
2022-10-05T21:24:14.034Z,17.75
2022-10-05T21:26:44.603Z,18.90
2022-10-05T21:29:16.519Z,18.60
2022-10-05T21:31:46.546Z,18.35
2022-10-05T21:34:16.782Z,17.58
2022-10-05T21:36:46.764Z,18.35
2022-10-05T21:39:17.191Z,17.38
2022-10-05T21:41:49.613Z,18.52
2022-10-05T21:44:21.424Z,18.40
2022-10-05T21:46:51.776Z,18.25
2022-10-05T21:49:22.044Z,17.75
2022-10-05T21:51:52.043Z,17.05
2022-10-05T21:54:24.283Z,19.27
2022-10-05T21:56:56.938Z,19.75
2022-10-05T21:59:32.833Z,18.95
2022-10-05T22:02:02.884Z,16.52
2022-10-05T22:04:33.143Z,16.42
2022-10-05T22:07:03.124Z,17.20
2022-10-05T22:09:33.225Z,14.35
2022-10-05T22:12:03.163Z,15.18
2022-10-05T22:14:34.525Z,14.63
2022-10-05T22:17:04.989Z,15.70
2022-10-05T22:19:34.957Z,14.52
2022-10-05T22:22:08.624Z,15.15
2022-10-05T22:24:41.007Z,14.38
2022-10-05T22:27:11.373Z,13.90
2022-10-05T22:29:43.004Z,13.43
2022-10-05T22:32:13.244Z,14.60
2022-10-05T22:34:43.134Z,14.55
2022-10-05T22:37:14.132Z,15.77
2022-10-05T22:39:45.082Z,15.05
2022-10-05T22:42:15.014Z,13.80
2022-10-05T22:44:46.584Z,13.82
2022-10-05T22:47:16.565Z,15.13
2022-10-05T22:49:46.679Z,14.05
2022-10-05T22:52:16.576Z,13.98
2022-10-05T22:54:46.795Z,12.85
2022-10-05T22:57:16.923Z,13.77
2022-10-05T22:59:48.264Z,12.23
2022-10-05T23:04:49.014Z,13.70
2022-10-05T23:07:19.205Z,12.32
2022-10-05T23:09:49.075Z,12.75
2022-10-05T23:12:19.003Z,13.38
2022-10-05T23:14:50.643Z,12.93
2022-10-05T23:17:22.674Z,14.40
2022-10-05T23:19:52.835Z,12.55
2022-10-05T23:22:23.963Z,14.15
2022-10-05T23:24:54.412Z,13.68
2022-10-05T23:27:24.464Z,14.35
2022-10-05T23:29:55.852Z,12.88
2022-10-05T23:32:26.224Z,13.85
2022-10-05T23:34:56.115Z,12.50
2022-10-05T23:37:28.294Z,13.88
2022-10-05T23:39:58.505Z,13.65
2022-10-05T23:42:28.492Z,13.25
2022-10-05T23:44:59.854Z,12.00
2022-10-05T23:49:59.604Z,13.07
2022-10-05T23:52:29.923Z,13.27
2022-10-05T23:55:00.044Z,11.80
2022-10-05T23:57:30.103Z,11.57
